Time;durP1;ratioP1;P1;durP2;ratioP2;P2;SDS_P1;SDS_P2;PMS_P1;PMS_P2;Temp;Humidity;BMP_temperature;BMP_pressure;BME280_temperature;BME280_humidity;BME280_pressure;Samples;Min_cycle;Max_cycle;Signal;HPM_P1;HPM_P2
2022/06/27 00:01:48;;;;;;;;;0.00;0.00;;;;;-146.67;30.21;73623.56;5043881;28;61814;-78
2022/06/27 00:04:14;;;;;;;;;0.00;0.00;;;;;-146.67;30.34;73621.56;5044323;28;62345;-78
2022/06/27 00:06:39;;;;;;;;;0.00;0.00;;;;;-146.67;30.43;73621.56;5025770;28;62078;-78
2022/06/27 00:09:05;;;;;;;;;0.00;0.00;;;;;-146.67;29.97;73627.56;5043582;28;61972;-78
2022/06/27 00:11:31;;;;;;;;;0.00;0.00;;;;;-146.67;30.31;73623.56;5044079;28;62161;-78
2022/06/27 00:13:56;;;;;;;;;0.00;0.00;;;;;-146.67;30.38;73623.56;5044241;28;61794;-78
2022/06/27 00:16:22;;;;;;;;;0.00;0.00;;;;;-146.67;30.12;73619.56;5025699;28;62193;-78
2022/06/27 00:18:47;;;;;;;;;0.00;0.00;;;;;-146.67;30.49;73625.56;5043503;28;62763;-78
2022/06/27 00:21:13;;;;;;;;;0.00;0.00;;;;;-146.67;30.09;73619.56;5043755;28;61934;-78
2022/06/27 00:23:38;;;;;;;;;0.00;0.00;;;;;-146.67;30.14;73617.56;5043466;28;61766;-78
2022/06/27 00:26:03;;;;;;;;;0.00;0.00;;;;;-146.67;30.29;73619.56;5044156;28;61653;-78
2022/06/27 00:28:29;;;;;;;;;0.00;0.00;;;;;-146.67;30.55;73633.53;5024967;28;64115;-78
2022/06/27 00:30:55;;;;;;;;;0.00;0.00;;;;;-146.67;30.26;73643.53;5043609;28;61850;-78
2022/06/27 00:33:21;;;;;;;;;0.00;0.00;;;;;-146.67;30.64;73639.53;5043655;28;61775;-78
2022/06/27 00:35:46;;;;;;;;;0.00;0.00;;;;;-146.67;30.53;73625.56;5043681;28;61972;-78
2022/06/27 00:38:12;;;;;;;;;0.00;0.00;;;;;-146.67;30.28;73637.53;5043311;28;62357;-78
2022/06/27 00:40:37;;;;;;;;;0.00;0.00;;;;;-146.67;29.82;73651.50;5043675;28;61688;-78
2022/06/27 00:43:03;;;;;;;;;0.00;0.00;;;;;-146.67;30.25;73677.47;5025734;28;61873;-78
2022/06/27 00:45:29;;;;;;;;;0.00;0.00;;;;;-146.67;30.29;73683.44;5043642;28;61773;-78
2022/06/27 00:47:54;;;;;;;;;0.00;0.00;;;;;-146.67;30.47;73687.44;5042888;28;62754;-78
2022/06/27 00:50:20;;;;;;;;;0.00;0.00;;;;;-146.67;30.73;73693.44;5043585;28;62054;-78
2022/06/27 00:52:45;;;;;;;;;0.00;0.00;;;;;-146.67;30.39;73705.41;5024933;28;61779;-78
2022/06/27 00:55:11;;;;;;;;;0.00;0.00;;;;;-146.67;30.86;73719.38;5043849;28;62231;-78
2022/06/27 00:57:37;;;;;;;;;0.00;0.00;;;;;-146.67;30.74;73729.34;5042573;28;61850;-78
2022/06/27 01:00:04;;;;;;;;;0.00;0.00;;;;;-146.67;30.86;73733.34;5043431;28;61897;-78
2022/06/27 01:02:30;;;;;;;;;0.00;0.00;;;;;-146.67;30.68;73723.38;5024970;28;61983;-78
2022/06/27 01:04:55;;;;;;;;;0.00;0.00;;;;;-146.67;30.77;73727.34;5043656;28;62415;-78
2022/06/27 01:07:21;;;;;;;;;0.00;0.00;;;;;-146.67;31.37;73725.38;5041990;28;62108;-78
2022/06/27 01:09:47;;;;;;;;;0.00;0.00;;;;;-146.67;30.74;73715.38;5025147;28;61910;-78
2022/06/27 01:12:12;;;;;;;;;0.00;0.00;;;;;-146.67;31.05;73719.38;5043312;28;62155;-78
2022/06/27 01:14:42;;;;;;;;;0.00;0.00;;;;;-146.67;30.91;73719.38;5043051;28;62122;-78
2022/06/27 01:17:10;;;;;;;;;0.00;0.00;;;;;-146.67;30.98;73719.38;5042532;28;62723;-78
2022/06/27 01:19:36;;;;;;;;;0.00;0.00;;;;;-146.67;31.07;73721.38;5043169;28;61741;-78
2022/06/27 01:22:10;;;;;;;;;0.00;0.00;;;;;-146.67;30.67;73717.38;5042641;28;62081;-78
2022/06/27 01:24:36;;;;;;;;;0.00;0.00;;;;;-146.67;31.00;73705.41;5024288;28;62168;-78
2022/06/27 01:27:03;;;;;;;;;0.00;0.00;;;;;-146.67;30.83;73705.41;5042392;28;61972;-78
2022/06/27 01:29:28;;;;;;;;;0.00;0.00;;;;;-146.67;30.84;73705.41;5024738;28;61963;-78
2022/06/27 01:31:54;;;;;;;;;0.00;0.00;;;;;-146.67;30.75;73689.44;5042735;28;61811;-78
2022/06/27 01:34:20;;;;;;;;;0.00;0.00;;;;;-146.67;30.66;73683.44;5043041;28;62053;-78
2022/06/27 01:36:47;;;;;;;;;0.00;0.00;;;;;-146.67;30.90;73691.44;5042015;28;61993;-78
2022/06/27 01:39:16;;;;;;;;;0.00;0.00;;;;;-146.67;30.82;73697.41;5042763;28;62029;-78
2022/06/27 01:41:48;;;;;;;;;0.00;0.00;;;;;-146.67;30.88;73711.38;5024648;28;62171;-78
2022/06/27 01:44:15;;;;;;;;;0.00;0.00;;;;;-146.67;31.04;73697.41;5042666;28;62155;-78
2022/06/27 01:47:12;;;;;;;;;0.00;0.00;;;;;-146.67;30.91;73683.44;5042051;28;61944;-78
2022/06/27 01:49:38;;;;;;;;;0.00;0.00;;;;;-146.67;30.93;73689.44;4941547;28;61959;-78
2022/06/27 01:52:07;;;;;;;;;0.00;0.00;;;;;-146.67;30.84;73683.44;4941727;28;62052;-78
2022/06/27 01:54:33;;;;;;;;;0.00;0.00;;;;;-146.67;30.80;73671.47;4941749;28;62201;-78
2022/06/27 01:56:59;;;;;;;;;0.00;0.00;;;;;-146.67;30.75;73673.47;4940852;28;61867;-78
2022/06/27 01:59:27;;;;;;;;;0.00;0.00;;;;;-146.67;30.61;73671.47;4925604;28;61963;-78
2022/06/27 02:01:53;;;;;;;;;0.00;0.00;;;;;-146.67;30.60;73671.47;4941368;28;62091;-78
2022/06/27 02:04:19;;;;;;;;;0.00;0.00;;;;;-146.67;30.44;73683.44;4942058;28;62184;-78
2022/06/27 02:06:46;;;;;;;;;0.00;0.00;;;;;-146.67;30.53;73689.44;4946251;28;62068;-78
2022/06/27 02:09:14;;;;;;;;;0.00;0.00;;;;;-146.67;30.78;73677.47;4960977;28;61818;-78
2022/06/27 02:11:42;;;;;;;;;0.00;0.00;;;;;-146.67;30.70;73675.47;4960611;28;62119;-78
2022/06/27 02:14:07;;;;;;;;;0.00;0.00;;;;;-146.67;30.66;73673.47;4960942;28;61976;-78
2022/06/27 02:16:33;;;;;;;;;0.00;0.00;;;;;-146.67;30.86;73667.47;4960280;28;62021;-78
2022/06/27 02:18:58;;;;;;;;;0.00;0.00;;;;;-146.67;31.06;73667.47;4960031;28;62026;-78
2022/06/27 02:21:26;;;;;;;;;0.00;0.00;;;;;-146.67;30.84;73663.47;4960364;28;62126;-78
2022/06/27 02:23:53;;;;;;;;;0.00;0.00;;;;;-146.67;30.60;73665.47;4960356;28;62069;-78
2022/06/27 02:26:30;;;;;;;;;0.00;0.00;;;;;-146.67;30.75;73669.47;5019968;28;64255;-78
2022/06/27 02:28:58;;;;;;;;;0.00;0.00;;;;;-146.67;31.06;73683.44;5041997;28;61968;-78
2022/06/27 02:31:23;;;;;;;;;0.00;0.00;;;;;-146.67;30.94;73689.44;5042348;28;61960;-78
2022/06/27 02:33:50;;;;;;;;;0.00;0.00;;;;;-146.67;30.86;73695.41;5041935;28;61799;-78
2022/06/27 02:36:18;;;;;;;;;0.00;0.00;;;;;-146.67;30.67;73695.41;5041157;28;61881;-78
2022/06/27 02:38:47;;;;;;;;;0.00;0.00;;;;;-146.67;31.13;73695.41;5041698;28;61807;-78
2022/06/27 02:41:15;;;;;;;;;0.00;0.00;;;;;-146.67;31.16;73687.44;5041756;28;61902;-78
2022/06/27 02:43:45;;;;;;;;;0.00;0.00;;;;;-146.67;30.77;73679.44;5040577;28;62275;-78
2022/06/27 02:46:10;;;;;;;;;0.00;0.00;;;;;-146.67;30.89;73677.47;5023521;28;62823;-78
2022/06/27 02:48:37;;;;;;;;;0.00;0.00;;;;;-146.67;30.96;73691.44;5023930;28;61931;-78
2022/06/27 02:51:12;;;;;;;;;0.00;0.00;;;;;-146.67;31.24;73699.41;5041644;28;61807;-78
2022/06/27 02:53:49;;;;;;;;;0.00;0.00;;;;;-146.67;31.26;73687.44;5042258;28;61904;-79
2022/06/27 02:56:20;;;;;;;;;0.00;0.00;;;;;-146.67;30.91;73689.44;5042794;28;63158;-78
2022/06/27 02:58:53;;;;;;;;;0.00;0.00;;;;;-146.67;31.04;73683.44;5041734;28;61738;-78
2022/06/27 03:01:21;;;;;;;;;0.00;0.00;;;;;-146.67;31.08;73673.47;5041872;28;61907;-78
2022/06/27 03:03:48;;;;;;;;;0.00;0.00;;;;;-146.67;31.22;73681.44;5041576;28;61958;-78
2022/06/27 03:06:14;;;;;;;;;0.00;0.00;;;;;-146.67;30.94;73685.44;5035947;28;65016;-78
2022/06/27 03:08:45;;;;;;;;;0.00;0.00;;;;;-146.67;30.80;73683.44;5023693;28;61956;-78
2022/06/27 03:11:16;;;;;;;;;0.00;0.00;;;;;-146.67;31.27;73683.44;5041461;28;61952;-78
2022/06/27 03:13:43;;;;;;;;;0.00;0.00;;;;;-146.67;31.15;73679.44;5023520;28;62031;-78
2022/06/27 03:16:08;;;;;;;;;0.00;0.00;;;;;-146.67;30.95;73683.44;5040949;28;62776;-78
2022/06/27 03:18:35;;;;;;;;;0.00;0.00;;;;;-146.67;31.14;73683.44;5041436;28;62066;-78
2022/06/27 03:21:00;;;;;;;;;0.00;0.00;;;;;-146.67;31.03;73685.44;5041063;28;62224;-78
2022/06/27 03:23:27;;;;;;;;;0.00;0.00;;;;;-146.67;31.29;73687.44;5041244;28;61842;-78
2022/06/27 03:25:53;;;;;;;;;0.00;0.00;;;;;-146.67;31.02;73689.44;5040506;28;61949;-78
2022/06/27 03:28:18;;;;;;;;;0.00;0.00;;;;;-146.67;31.23;73681.44;5041373;28;62002;-78
2022/06/27 03:30:45;;;;;;;;;0.00;0.00;;;;;-146.67;31.08;73679.44;5042579;28;61902;-79
2022/06/27 03:33:10;;;;;;;;;0.00;0.00;;;;;-146.67;31.09;73671.47;5045240;28;62073;-78
2022/06/27 03:35:35;;;;;;;;;0.00;0.00;;;;;-146.67;30.96;73677.47;5044248;28;62508;-78
2022/06/27 03:38:01;;;;;;;;;0.00;0.00;;;;;-146.67;31.08;73685.44;5044110;28;61752;-78
2022/06/27 03:40:26;;;;;;;;;0.00;0.00;;;;;-146.67;30.98;73669.47;5044614;28;61866;-78
2022/06/27 03:42:52;;;;;;;;;0.00;0.00;;;;;-146.67;30.88;73673.47;5044395;28;62140;-78
2022/06/27 03:45:18;;;;;;;;;0.00;0.00;;;;;-146.67;30.85;73677.47;5044109;28;62404;-78
2022/06/27 03:47:55;;;;;;;;;0.00;0.00;;;;;-146.67;31.05;73683.44;5044555;28;61975;-78
2022/06/27 03:50:22;;;;;;;;;0.00;0.00;;;;;-146.67;30.91;73669.47;5026771;28;61846;-78
2022/06/27 03:52:47;;;;;;;;;0.00;0.00;;;;;-146.67;30.97;73667.47;5043978;28;61869;-76
2022/06/27 03:55:14;;;;;;;;;0.00;0.00;;;;;-146.67;30.75;73663.47;5043704;28;61765;-77
2022/06/27 03:57:51;;;;;;;;;0.00;0.00;;;;;-146.67;30.79;73653.50;5044219;28;61736;-78
2022/06/27 04:00:18;;;;;;;;;0.00;0.00;;;;;-146.67;30.72;73659.50;5044636;28;61780;-77
2022/06/27 04:02:44;;;;;;;;;0.00;0.00;;;;;-146.67;30.61;73661.50;5044361;28;62028;-78
2022/06/27 04:05:10;;;;;;;;;0.00;0.00;;;;;-146.67;30.88;73669.47;5043559;28;62777;-78
2022/06/27 04:07:36;;;;;;;;;0.00;0.00;;;;;-146.67;30.66;73683.44;5025520;28;61844;-77
2022/06/27 04:10:02;;;;;;;;;0.00;0.00;;;;;-146.67;30.75;73675.47;5044154;28;61851;-78
2022/06/27 04:12:28;;;;;;;;;0.00;0.00;;;;;-146.67;30.86;73679.44;5044294;28;61930;-78
2022/06/27 04:14:53;;;;;;;;;0.00;0.00;;;;;-146.67;30.80;73685.44;5043631;28;61862;-78
2022/06/27 04:17:19;;;;;;;;;0.00;0.00;;;;;-146.67;30.54;73681.44;5044103;28;61873;-78
2022/06/27 04:19:44;;;;;;;;;0.00;0.00;;;;;-146.67;30.54;73685.44;5044011;28;61813;-77
2022/06/27 04:22:09;;;;;;;;;0.00;0.00;;;;;-146.67;30.97;73685.44;5043552;28;61828;-77
2022/06/27 04:24:36;;;;;;;;;0.00;0.00;;;;;-146.67;30.62;73689.44;5043229;28;62067;-78
2022/06/27 04:27:02;;;;;;;;;0.00;0.00;;;;;-146.67;30.78;73701.41;5025704;28;62003;-78
2022/06/27 04:29:29;;;;;;;;;0.00;0.00;;;;;-146.67;30.50;73699.41;5044127;28;61954;-78
2022/06/27 04:31:55;;;;;;;;;0.00;0.00;;;;;-146.67;30.90;73699.41;5044025;28;61765;-78
2022/06/27 04:34:20;;;;;;;;;0.00;0.00;;;;;-146.67;30.66;73699.41;5042946;28;61811;-78
2022/06/27 04:36:46;;;;;;;;;0.00;0.00;;;;;-146.67;30.37;73703.41;5025208;28;61955;-78
2022/06/27 04:39:17;;;;;;;;;0.00;0.00;;;;;-146.67;30.68;73713.38;5043387;28;61822;-78
2022/06/27 04:41:45;;;;;;;;;0.00;0.00;;;;;-146.67;30.46;73707.41;5043766;28;61727;-78
2022/06/27 04:44:11;;;;;;;;;0.00;0.00;;;;;-146.67;30.61;73705.41;5042186;28;62700;-78
2022/06/27 04:46:37;;;;;;;;;0.00;0.00;;;;;-146.67;30.56;73707.41;5043733;28;61917;-78
2022/06/27 04:49:03;;;;;;;;;0.00;0.00;;;;;-146.67;30.43;73713.38;5043574;28;62013;-78
2022/06/27 04:51:29;;;;;;;;;0.00;0.00;;;;;-146.67;30.24;73705.41;5043272;28;61921;-77
2022/06/27 04:53:55;;;;;;;;;0.00;0.00;;;;;-146.67;30.54;73697.41;5042662;28;61810;-77
2022/06/27 04:56:21;;;;;;;;;0.00;0.00;;;;;-146.67;30.49;73687.44;5043543;28;61814;-78
2022/06/27 04:58:49;;;;;;;;;0.00;0.00;;;;;-146.67;30.44;73675.47;5025338;28;61951;-77
2022/06/27 05:01:16;;;;;;;;;0.00;0.00;;;;;-146.67;30.49;73669.47;5043474;28;61770;-77
2022/06/27 05:03:46;;;;;;;;;0.00;0.00;;;;;-146.67;30.37;73665.47;5042561;28;61889;-78
2022/06/27 05:06:12;;;;;;;;;0.00;0.00;;;;;-146.67;30.03;73655.50;5042763;28;61861;-79
2022/06/27 05:08:38;;;;;;;;;0.00;0.00;;;;;-146.67;30.24;73653.50;5025558;28;61975;-83
2022/06/27 05:11:04;;;;;;;;;0.00;0.00;;;;;-146.67;30.28;73649.50;5043443;28;61970;-81
2022/06/27 05:13:31;;;;;;;;;0.00;0.00;;;;;-146.67;30.11;73637.53;5042510;28;62761;-81
2022/06/27 05:15:57;;;;;;;;;0.00;0.00;;;;;-146.67;30.12;73637.53;5043336;28;61942;-80
2022/06/27 05:18:23;;;;;;;;;0.00;0.00;;;;;-146.67;30.16;73655.50;5042929;28;61915;-80
2022/06/27 05:20:49;;;;;;;;;0.00;0.00;;;;;-146.67;30.27;73655.50;5043026;28;61927;-82
2022/06/27 05:23:14;;;;;;;;;0.00;0.00;;;;;-146.67;30.20;73657.50;5041901;28;62152;-82
2022/06/27 05:25:41;;;;;;;;;0.00;0.00;;;;;-146.67;30.12;73655.50;5043045;28;62115;-81
2022/06/27 05:28:07;;;;;;;;;0.00;0.00;;;;;-146.67;30.24;73653.50;5043031;28;61910;-81
2022/06/27 05:30:33;;;;;;;;;0.00;0.00;;;;;-146.67;30.34;73641.53;5043266;28;61849;-80
2022/06/27 05:32:58;;;;;;;;;0.00;0.00;;;;;-146.67;29.97;73629.56;5042208;28;62035;-80
2022/06/27 05:35:24;;;;;;;;;0.00;0.00;;;;;-146.67;30.24;73629.56;5023724;28;61861;-81
2022/06/27 05:37:50;;;;;;;;;0.00;0.00;;;;;-146.67;29.95;73619.56;5040895;28;61941;-79
2022/06/27 05:40:17;;;;;;;;;0.00;0.00;;;;;-146.67;29.76;73603.59;5039267;28;61775;-79
2022/06/27 05:42:43;;;;;;;;;0.00;0.00;;;;;-146.67;29.95;73601.59;5039753;28;61845;-83
2022/06/27 05:45:10;;;;;;;;;0.00;0.00;;;;;-146.67;30.02;73587.63;5010156;28;62116;-78
2022/06/27 05:47:36;;;;;;;;;0.00;0.00;;;;;-146.67;29.90;73591.63;5007022;28;61897;-78
2022/06/27 05:50:04;;;;;;;;;0.00;0.00;;;;;-146.67;29.89;73587.63;5017093;28;61985;-78
2022/06/27 05:52:30;;;;;;;;;0.00;0.00;;;;;-146.67;29.89;73599.63;5032302;28;61815;-78
2022/06/27 05:54:56;;;;;;;;;0.00;0.00;;;;;-146.67;30.02;73607.59;5039582;28;61834;-78
2022/06/27 05:57:24;;;;;;;;;0.00;0.00;;;;;-146.67;30.06;73613.59;5033811;28;61943;-78
2022/06/27 05:59:50;;;;;;;;;0.00;0.00;;;;;-146.67;29.98;73611.59;5022811;28;62165;-76
2022/06/27 06:02:16;;;;;;;;;0.00;0.00;;;;;-146.67;29.99;73605.59;5021769;28;63159;-76
2022/06/27 06:04:41;;;;;;;;;0.00;0.00;;;;;-146.67;29.78;73595.63;5040350;28;62010;-76
2022/06/27 06:07:07;;;;;;;;;0.00;0.00;;;;;-146.67;29.77;73607.59;5039994;28;62075;-76
2022/06/27 06:09:33;;;;;;;;;0.00;0.00;;;;;-146.67;29.79;73615.59;5040436;28;61854;-76
2022/06/27 06:11:59;;;;;;;;;0.00;0.00;;;;;-146.67;29.69;73631.53;5038502;28;61958;-77
2022/06/27 06:14:26;;;;;;;;;0.00;0.00;;;;;-146.67;29.67;73651.50;5021391;28;61891;-78
2022/06/27 06:16:52;;;;;;;;;0.00;0.00;;;;;-146.67;30.09;73647.50;5039841;28;61929;-80
2022/06/27 06:19:18;;;;;;;;;0.00;0.00;;;;;-146.67;29.94;73651.50;5040019;28;61946;-80
2022/06/27 06:21:49;;;;;;;;;0.00;0.00;;;;;-146.67;30.00;73657.50;5039095;28;62190;-80
2022/06/27 06:24:17;;;;;;;;;0.00;0.00;;;;;-146.67;30.07;73633.53;5040226;28;61992;-80
2022/06/27 06:26:43;;;;;;;;;0.00;0.00;;;;;-146.67;29.97;73625.56;5041192;28;61973;-80
2022/06/27 06:29:15;;;;;;;;;0.00;0.00;;;;;-146.67;29.99;73631.53;5023200;28;61771;-80
2022/06/27 06:31:45;;;;;;;;;0.00;0.00;;;;;-146.67;29.75;73609.59;5038107;28;61898;-80
2022/06/27 06:34:12;;;;;;;;;0.00;0.00;;;;;-146.67;29.63;73611.59;5023161;28;61902;-80
2022/06/27 06:36:39;;;;;;;;;0.00;0.00;;;;;-146.67;29.84;73615.59;5041169;28;61802;-77
2022/06/27 06:39:06;;;;;;;;;0.00;0.00;;;;;-146.67;29.77;73613.59;5019476;28;61904;-77
2022/06/27 06:41:32;;;;;;;;;0.00;0.00;;;;;-146.67;29.75;73625.56;5014898;28;63960;-80
2022/06/27 06:43:59;;;;;;;;;0.00;0.00;;;;;-146.67;29.78;73655.50;5032118;28;61965;-76
2022/06/27 06:46:28;;;;;;;;;0.00;0.00;;;;;-146.67;29.94;73703.41;5021626;28;62029;-76
2022/06/27 06:49:05;;;;;;;;;0.00;0.00;;;;;-146.67;30.08;73699.41;5037661;28;61774;-79
2022/06/27 06:51:34;;;;;;;;;0.00;0.00;;;;;-146.67;30.09;73679.44;5020885;28;64696;-75
2022/06/27 06:54:00;;;;;;;;;0.00;0.00;;;;;-146.67;29.94;73633.53;5029581;28;61906;-75
2022/06/27 06:56:26;;;;;;;;;0.00;0.00;;;;;-146.67;29.62;73595.63;5023476;28;62056;-75
2022/06/27 06:58:51;;;;;;;;;0.00;0.00;;;;;-146.67;29.18;73599.63;5041012;28;61810;-75
2022/06/27 07:01:18;;;;;;;;;0.00;0.00;;;;;-146.67;29.44;73643.53;5038583;28;63295;-76
2022/06/27 07:03:43;;;;;;;;;0.00;0.00;;;;;-146.67;29.84;73639.53;5039620;28;61948;-75
2022/06/27 07:06:09;;;;;;;;;0.00;0.00;;;;;-146.67;29.52;73607.59;5041187;28;62634;-75
2022/06/27 07:08:36;;;;;;;;;0.00;0.00;;;;;-146.67;29.55;73617.56;5045159;28;61832;-77
2022/06/27 07:11:02;;;;;;;;;0.00;0.00;;;;;-146.67;29.57;73593.63;5044282;28;61924;-75
2022/06/27 07:13:28;;;;;;;;;0.00;0.00;;;;;-146.67;29.20;73591.63;5043951;28;61949;-75
2022/06/27 07:15:54;;;;;;;;;0.00;0.00;;;;;-146.67;29.20;73595.63;5025567;28;62306;-75
2022/06/27 07:18:19;;;;;;;;;0.00;0.00;;;;;-146.67;29.25;73625.56;5044950;28;61914;-75
2022/06/27 07:20:45;;;;;;;;;0.00;0.00;;;;;-146.67;29.35;73653.50;5044107;28;61826;-75
2022/06/27 07:23:11;;;;;;;;;0.00;0.00;;;;;-146.67;29.80;73677.47;5043638;28;62068;-75
2022/06/27 07:25:37;;;;;;;;;0.00;0.00;;;;;-146.67;29.72;73685.44;5043624;28;62078;-75
2022/06/27 07:28:03;;;;;;;;;0.00;0.00;;;;;-146.67;29.62;73681.44;5044275;28;61889;-75
2022/06/27 07:30:29;;;;;;;;;0.00;0.00;;;;;-146.67;29.57;73689.44;5025196;28;62839;-76
2022/06/27 07:32:55;;;;;;;;;0.00;0.00;;;;;-146.67;29.86;73739.34;5043850;28;61703;-77
2022/06/27 07:35:20;;;;;;;;;0.00;0.00;;;;;-146.67;30.13;73741.34;5044162;28;61777;-76
2022/06/27 07:37:51;;;;;;;;;0.00;0.00;;;;;-146.67;30.00;73725.38;5059508;28;61851;-76
2022/06/27 07:40:22;;;;;;;;;0.00;0.00;;;;;-146.67;29.88;73705.41;5038026;28;63646;-76
2022/06/27 07:42:50;;;;;;;;;0.00;0.00;;;;;-146.67;29.81;73691.44;5039728;28;61701;-75
2022/06/27 07:45:16;;;;;;;;;0.00;0.00;;;;;-146.67;29.78;73713.38;5025586;28;61826;-76
2022/06/27 07:47:42;;;;;;;;;0.00;0.00;;;;;-146.67;29.80;73731.34;5042991;28;62073;-76
2022/06/27 07:50:09;;;;;;;;;0.00;0.00;;;;;-146.67;29.74;73751.31;5042704;28;62014;-76
2022/06/27 07:53:11;;;;;;;;;0.00;0.00;;;;;-146.67;29.88;73757.31;5024833;28;61833;-76
2022/06/27 07:55:23;;;;;;;;;4.00;4.00;;;;;-146.67;29.53;73725.38;5044042;28;61959;-76
2022/06/27 07:57:52;;;;;;;;;0.00;0.00;;;;;-146.67;29.48;73673.47;5043813;28;62155;-75
2022/06/27 08:00:18;;;;;;;;;0.00;0.00;;;;;-146.67;29.11;73633.53;5043425;28;62087;-76
2022/06/27 08:02:44;;;;;;;;;0.00;0.00;;;;;-146.67;29.07;73659.50;5044134;28;61971;-76
2022/06/27 08:05:10;;;;;;;;;0.00;0.00;;;;;-146.67;29.24;73685.44;5044244;28;61912;-76
2022/06/27 08:07:36;;;;;;;;;0.00;0.00;;;;;-146.67;29.32;73691.44;5043675;28;61914;-76
2022/06/27 08:10:04;;;;;;;;;0.00;0.00;;;;;-146.67;29.44;73721.38;5043857;28;62077;-75
2022/06/27 08:12:30;;;;;;;;;0.00;0.00;;;;;-146.67;29.35;73733.34;5044069;28;61867;-75
2022/06/27 08:14:56;;;;;;;;;0.00;0.00;;;;;-146.67;29.34;73757.31;5044019;28;61816;-76
2022/06/27 08:17:23;;;;;;;;;0.00;0.00;;;;;-146.67;29.62;73785.25;5043288;28;61719;-76
2022/06/27 08:19:49;;;;;;;;;0.00;0.00;;;;;-146.67;29.58;73801.22;5042959;28;62739;-76
2022/06/27 08:22:14;;;;;;;;;0.00;0.00;;;;;-146.67;29.81;73825.16;5025717;28;61764;-76
2022/06/27 08:24:40;;;;;;;;;0.00;0.00;;;;;-146.67;29.71;73829.16;5043321;28;61744;-76
2022/06/27 08:27:07;;;;;;;;;0.00;0.00;;;;;-146.67;30.15;73843.13;5044247;28;61671;-76
2022/06/27 08:29:32;;;;;;;;;0.00;0.00;;;;;-146.67;30.16;73865.09;5043040;28;61808;-75
2022/06/27 08:32:00;;;;;;;;;0.00;0.00;;;;;-146.67;44.75;73926.97;5043568;28;61708;-75
2022/06/27 08:34:26;;;;;;;;;0.00;0.00;;;;;-146.67;45.46;74022.78;5044108;28;62194;-75
2022/06/27 08:36:52;;;;;;;;;0.00;0.00;;;;;-146.67;46.76;74058.72;5043615;28;61899;-74
2022/06/27 08:39:18;;;;;;;;;0.00;0.00;;;;;-146.67;42.07;74086.66;5043270;28;61922;-74
2022/06/27 08:41:48;;;;;;;;;0.00;0.00;;;;;-146.67;43.77;74094.66;5025495;28;61788;-75
2022/06/27 08:44:15;;;;;;;;;0.00;0.00;;;;;-146.67;43.29;74092.66;5025397;28;61997;-76
2022/06/27 08:46:46;;;;;;;;;0.00;0.00;;;;;-146.67;43.27;74066.69;5043988;28;61774;-74
2022/06/27 08:49:14;;;;;;;;;0.00;0.00;;;;;-146.67;44.45;74034.75;5043070;28;61726;-75
2022/06/27 08:51:42;;;;;;;;;0.00;0.00;;;;;-146.67;45.67;74004.81;5043259;28;61912;-74
2022/06/27 08:54:07;;;;;;;;;6.67;6.00;;;;;-146.67;41.65;73990.84;5043324;28;61951;-74
2022/06/27 08:56:33;;;;;;;;;0.00;0.00;;;;;-146.67;45.59;73972.88;5043509;28;61932;-75
2022/06/27 08:58:59;;;;;;;;;0.00;0.00;;;;;-146.67;44.58;73913.00;5024119;28;63713;-75
2022/06/27 09:01:27;;;;;;;;;0.00;0.00;;;;;-146.67;44.27;73867.09;5043398;28;62396;-75
2022/06/27 09:04:04;;;;;;;;;0.00;0.00;;;;;-146.67;43.61;73835.16;5042830;28;61855;-75
2022/06/27 09:06:41;;;;;;;;;0.00;0.00;;;;;-146.67;43.36;73817.19;5042516;28;62001;-75
2022/06/27 09:09:08;;;;;;;;;0.00;0.00;;;;;-146.67;42.18;73811.19;5023862;28;64841;-75
2022/06/27 09:11:39;;;;;;;;;0.00;0.00;;;;;-146.67;37.17;73819.19;5043080;28;61829;-74
2022/06/27 09:14:08;;;;;;;;;0.00;0.00;;;;;-146.67;37.95;73811.19;5043091;28;61893;-75
2022/06/27 09:16:34;;;;;;;;;0.00;0.00;;;;;-146.67;37.99;73797.22;5043246;28;61832;-75
2022/06/27 09:19:00;;;;;;;;;0.00;0.00;;;;;-146.67;36.24;73785.25;5042165;28;62573;-75
2022/06/27 09:21:27;;;;;;;;;0.00;0.00;;;;;-146.67;37.89;73779.25;5025041;28;61842;-74
2022/06/27 09:24:01;;;;;;;;;0.00;0.00;;;;;-146.67;36.99;73767.28;5042404;28;61838;-74
2022/06/27 09:26:28;;;;;;;;;0.00;0.00;;;;;-146.67;36.00;73757.31;5043091;28;61784;-74
2022/06/27 09:29:00;;;;;;;;;0.00;0.00;;;;;-146.67;34.54;73767.28;5024034;28;63955;-74
2022/06/27 09:31:30;;;;;;;;;0.00;0.00;;;;;-146.67;35.78;73789.25;5043219;28;61830;-74
2022/06/27 09:34:09;;;;;;;;;0.00;0.00;;;;;-146.67;34.27;73781.25;5042886;28;61911;-74
2022/06/27 09:36:39;;;;;;;;;0.00;0.00;;;;;-146.67;33.18;73769.28;5024674;28;61884;-75
2022/06/27 09:39:06;;;;;;;;;0.00;0.00;;;;;-146.67;34.26;73765.28;5041920;28;62585;-74
2022/06/27 09:41:34;;;;;;;;;0.00;0.00;;;;;-146.67;34.35;73751.31;5042678;28;62007;-75
2022/06/27 09:44:06;;;;;;;;;0.00;0.00;;;;;-146.67;34.19;73747.31;5042529;28;61700;-75
2022/06/27 09:46:35;;;;;;;;;0.00;0.00;;;;;-146.67;34.09;73741.34;5024830;28;61874;-74
2022/06/27 09:49:03;;;;;;;;;0.00;0.00;;;;;-146.67;33.58;73741.34;5041717;28;61782;-75
2022/06/27 09:51:30;;;;;;;;;0.00;0.00;;;;;-146.67;33.23;73729.34;5042358;28;61772;-75
2022/06/27 09:54:00;;;;;;;;;0.00;0.00;;;;;-146.67;33.55;73705.41;5024278;28;61734;-75
2022/06/27 09:56:28;;;;;;;;;0.00;0.00;;;;;-146.67;32.01;73691.44;5024546;28;62148;-75
2022/06/27 09:58:55;;;;;;;;;0.00;0.00;;;;;-146.67;32.76;73685.44;5041519;28;61845;-74
2022/06/27 10:01:20;;;;;;;;;0.00;0.00;;;;;-146.67;31.22;73669.47;5042197;28;61930;-75
2022/06/27 10:03:46;;;;;;;;;0.00;0.00;;;;;-146.67;31.47;73651.50;5023789;28;61905;-75
2022/06/27 10:06:12;;;;;;;;;0.00;0.00;;;;;-146.67;32.02;73645.53;5041496;28;62301;-75
2022/06/27 10:08:46;;;;;;;;;0.00;0.00;;;;;-146.67;29.88;73649.50;5023743;28;65186;-74
2022/06/27 10:11:12;;;;;;;;;0.00;0.00;;;;;-146.67;30.30;73673.47;5041791;28;62068;-74
2022/06/27 10:13:42;;;;;;;;;0.00;0.00;;;;;-146.67;30.26;73663.47;5042238;28;61764;-75
2022/06/27 10:16:12;;;;;;;;;0.00;0.00;;;;;-146.67;29.43;73651.50;5024358;28;62060;-74
2022/06/27 10:19:00;;;;;;;;;0.00;0.00;;;;;-146.67;28.76;73611.59;5041673;28;62973;-75
2022/06/27 10:21:30;;;;;;;;;0.00;0.00;;;;;-146.67;29.37;73615.59;5041976;28;61889;-75
2022/06/27 10:24:31;;;;;;;;;0.00;0.00;;;;;-146.67;28.01;73621.56;5041518;28;61818;-74
2022/06/27 10:26:59;;;;;;;;;0.00;0.00;;;;;-146.67;28.44;73597.63;5023997;28;62019;-75
2022/06/27 10:29:27;;;;;;;;;0.00;0.00;;;;;-146.67;28.45;73569.66;5041624;28;61811;-74
2022/06/27 10:31:53;;;;;;;;;0.00;0.00;;;;;-146.67;28.09;73559.69;5042099;28;61790;-74
2022/06/27 10:34:48;;;;;;;;;0.00;0.00;;;;;-146.67;28.21;73529.75;5041910;28;61708;-75
2022/06/27 10:37:19;;;;;;;;;0.00;0.00;;;;;-146.67;27.65;73535.75;5041479;28;61842;-74
2022/06/27 10:39:45;;;;;;;;;0.00;0.00;;;;;-146.67;29.04;73501.81;5041010;28;61899;-75
2022/06/27 10:42:49;;;;;;;;;0.00;0.00;;;;;-146.67;28.06;73455.91;5044186;28;62181;-75
2022/06/27 10:45:20;;;;;;;;;0.00;0.00;;;;;-146.67;27.39;73421.97;5045499;28;61826;-74
2022/06/27 10:47:52;;;;;;;;;0.00;0.00;;;;;-146.67;26.85;73398.03;5045695;28;61697;-74
2022/06/27 10:50:20;;;;;;;;;0.00;0.00;;;;;-146.67;27.14;73386.03;5044691;28;61861;-77
2022/06/27 10:52:47;;;;;;;;;0.00;0.00;;;;;-146.67;26.66;73376.06;5045118;28;62080;-74
2022/06/27 10:55:24;;;;;;;;;0.00;0.00;;;;;-146.67;27.37;73352.13;5045026;28;61683;-74
2022/06/27 10:57:52;;;;;;;;;0.00;0.00;;;;;-146.67;27.85;73344.13;5045542;28;61906;-77
2022/06/27 11:00:41;;;;;;;;;0.00;0.00;;;;;-146.67;27.15;73378.06;5044444;28;61909;-74
2022/06/27 11:03:28;;;;;;;;;0.00;0.00;;;;;-146.67;25.92;73382.06;5044967;28;61855;-76
2022/06/27 11:06:00;;;;;;;;;0.00;0.00;;;;;-146.67;26.28;73372.06;5044309;28;62092;-78
2022/06/27 11:08:27;;;;;;;;;0.00;0.00;;;;;-146.67;26.11;73348.13;5045527;28;61696;-74
2022/06/27 11:10:54;;;;;;;;;0.00;0.00;;;;;-146.67;25.38;73340.13;5043902;28;63227;-74
2022/06/27 11:13:38;;;;;;;;;0.00;0.00;;;;;-146.67;25.70;73322.19;5043911;28;62075;-74
2022/06/27 11:16:04;;;;;;;;;0.00;0.00;;;;;-146.67;25.56;73300.22;5044846;28;62005;-77
2022/06/27 11:18:50;;;;;;;;;0.00;0.00;;;;;-146.67;25.54;73276.28;5026562;28;62117;-74
2022/06/27 11:21:21;;;;;;;;;0.00;0.00;;;;;-146.67;25.14;73262.31;5042935;28;62965;-74